Time;durP1;ratioP1;P1;durP2;ratioP2;P2;SDS_P1;SDS_P2;PMS_P1;PMS_P2;Temp;Humidity;BMP_temperature;BMP_pressure;BME280_temperature;BME280_humidity;BME280_pressure;Samples;Min_cycle;Max_cycle;Signal;HPM_P1;HPM_P2
2022/04/02 00:01:03;;;;;;;4.87;2.50;;;3.10;99.90;;;;;;5093582;28;20450;-87
2022/04/02 00:03:29;;;;;;;4.43;3.00;;;3.00;99.90;;;;;;5093359;28;20449;-87
2022/04/02 00:05:58;;;;;;;5.00;2.70;;;3.00;99.90;;;;;;5093943;28;20984;-84
2022/04/02 00:08:26;;;;;;;7.10;2.77;;;3.00;99.90;;;;;;5101388;28;20434;-83
2022/04/02 00:10:54;;;;;;;3.57;2.63;;;2.90;99.90;;;;;;5109585;28;20498;-84
2022/04/02 00:13:23;;;;;;;3.90;3.00;;;2.80;99.90;;;;;;5110125;28;20453;-86
2022/04/02 00:15:50;;;;;;;5.20;3.03;;;2.80;99.90;;;;;;5110204;28;20436;-84
2022/04/02 00:18:17;;;;;;;5.80;2.90;;;2.80;99.90;;;;;;5109866;28;20522;-83
2022/04/02 00:20:44;;;;;;;5.50;2.97;;;2.90;99.90;;;;;;5107116;28;20446;-85
2022/04/02 00:25:58;;;;;;;6.73;3.10;;;2.90;99.90;;;;;;5093483;28;20457;-84
2022/04/02 00:28:26;;;;;;;3.28;2.63;;;2.90;99.90;;;;;;5093066;28;20442;-81
2022/04/02 00:30:53;;;;;;;5.07;2.80;;;2.90;99.90;;;;;;5093558;28;20629;-84
2022/04/02 00:33:20;;;;;;;4.43;2.60;;;2.90;99.90;;;;;;5093338;28;20951;-84
2022/04/02 00:35:48;;;;;;;5.07;2.73;;;2.80;99.90;;;;;;5093299;28;20427;-81
2022/04/02 00:38:16;;;;;;;2.63;2.43;;;2.90;99.90;;;;;;5093313;28;20437;-87
2022/04/02 00:40:46;;;;;;;2.90;2.50;;;2.80;99.90;;;;;;5093347;28;20438;-79
2022/04/02 00:43:26;;;;;;;7.07;2.50;;;2.70;99.90;;;;;;5093482;28;20464;-81
2022/04/02 00:45:53;;;;;;;5.37;2.47;;;2.80;99.90;;;;;;5093482;28;20441;-85
2022/04/02 00:48:28;;;;;;;5.20;2.70;;;2.80;99.90;;;;;;5093527;28;20430;-84
2022/04/02 00:51:02;;;;;;;2.30;2.10;;;2.70;99.90;;;;;;5093350;28;20422;-80
2022/04/02 00:53:32;;;;;;;4.57;2.30;;;2.70;99.90;;;;;;5093208;28;20430;-85
2022/04/02 00:56:00;;;;;;;3.30;2.70;;;2.80;99.90;;;;;;5093499;28;20454;-86
2022/04/02 00:58:28;;;;;;;9.50;2.50;;;2.80;99.90;;;;;;5093414;28;20430;-84
2022/04/02 01:00:55;;;;;;;5.27;2.60;;;2.80;99.90;;;;;;5092835;28;20457;-82
2022/04/02 01:03:25;;;;;;;3.47;2.33;;;2.70;99.90;;;;;;5092384;28;20442;-83
2022/04/02 01:05:52;;;;;;;8.47;2.70;;;2.60;99.90;;;;;;5093045;28;20833;-84
2022/04/02 01:08:20;;;;;;;4.90;2.60;;;2.60;99.90;;;;;;5095373;28;20452;-85
2022/04/02 01:10:47;;;;;;;6.13;2.40;;;2.70;99.90;;;;;;5097106;28;20441;-86
2022/04/02 01:13:16;;;;;;;3.13;2.83;;;2.60;99.90;;;;;;5096501;28;20949;-86
2022/04/02 01:15:45;;;;;;;8.70;2.87;;;2.60;99.90;;;;;;5097292;28;20461;-85
2022/04/02 01:18:12;;;;;;;7.77;2.90;;;2.60;99.90;;;;;;5097115;28;20442;-84
2022/04/02 01:20:44;;;;;;;6.93;2.77;;;2.60;99.90;;;;;;5097331;28;20426;-88
2022/04/02 01:23:15;;;;;;;6.50;2.67;;;2.60;99.90;;;;;;5097050;28;20438;-87
2022/04/02 01:25:46;;;;;;;5.00;2.53;;;2.40;99.90;;;;;;5096759;28;20442;-86
2022/04/02 01:28:13;;;;;;;6.63;2.63;;;2.40;99.90;;;;;;5096572;28;20960;-86
2022/04/02 01:30:46;;;;;;;3.80;2.77;;;2.40;99.90;;;;;;5096805;28;20434;-87
2022/04/02 01:33:19;;;;;;;7.67;2.47;;;2.50;99.90;;;;;;5096878;28;20452;-86
2022/04/02 01:35:58;;;;;;;4.63;2.67;;;2.30;99.90;;;;;;5096688;28;20430;-87
2022/04/02 01:38:28;;;;;;;4.57;2.50;;;2.50;99.90;;;;;;5096441;28;20836;-87
2022/04/02 01:40:58;;;;;;;4.87;2.73;;;2.40;99.90;;;;;;5096746;28;20796;-84
2022/04/02 01:43:27;;;;;;;5.10;3.20;;;2.40;99.90;;;;;;5096513;28;20451;-88
2022/04/02 01:46:00;;;;;;;3.67;2.37;;;2.30;99.90;;;;;;5096533;28;20212;-85
2022/04/02 01:48:29;;;;;;;6.27;2.70;;;2.30;99.90;;;;;;5096549;28;20437;-86
2022/04/02 01:50:56;;;;;;;5.60;2.90;;;2.40;99.90;;;;;;5096359;28;20470;-84
2022/04/02 01:53:25;;;;;;;8.03;2.97;;;2.30;99.90;;;;;;5096189;28;20441;-86
2022/04/02 01:55:56;;;;;;;6.87;3.07;;;2.20;99.90;;;;;;5096240;28;20438;-86
2022/04/02 01:58:23;;;;;;;4.20;3.00;;;2.20;99.90;;;;;;5096191;28;20437;-87
2022/04/02 02:00:56;;;;;;;2.93;2.47;;;2.20;99.90;;;;;;5096103;28;20430;-86
2022/04/02 02:03:24;;;;;;;4.57;3.17;;;2.30;99.90;;;;;;5095006;28;20445;-87
2022/04/02 02:05:51;;;;;;;3.13;2.83;;;2.30;99.90;;;;;;5095716;28;20438;-85
2022/04/02 02:08:20;;;;;;;4.33;2.93;;;2.30;99.90;;;;;;5095787;28;20495;-87
2022/04/02 02:10:49;;;;;;;6.37;2.60;;;2.30;99.90;;;;;;5095862;28;20438;-84
2022/04/02 02:13:20;;;;;;;5.00;2.50;;;2.20;99.90;;;;;;5096315;28;20481;-87
2022/04/02 02:15:49;;;;;;;8.30;2.90;;;2.10;99.90;;;;;;5095960;28;20438;-84
2022/04/02 02:18:17;;;;;;;3.13;2.60;;;2.20;99.90;;;;;;5095350;28;21084;-85
2022/04/02 02:20:44;;;;;;;5.67;3.10;;;2.30;99.90;;;;;;5095079;28;20437;-87
2022/04/02 02:23:12;;;;;;;13.97;3.60;;;2.20;99.90;;;;;;5095987;28;20497;-85
2022/04/02 02:25:40;;;;;;;4.63;2.67;;;2.20;99.90;;;;;;5095700;28;20446;-87
2022/04/02 02:28:07;;;;;;;3.70;2.73;;;2.10;99.90;;;;;;5095333;28;20831;-87
2022/04/02 02:30:38;;;;;;;6.60;2.70;;;2.20;99.90;;;;;;5095718;28;20492;-86
2022/04/02 02:36:02;;;;;;;5.17;2.83;;;2.10;99.90;;;;;;5033131;28;20210;-85
2022/04/02 02:38:31;;;;;;;6.27;2.87;;;2.20;99.90;;;;;;5080369;28;20441;-85
2022/04/02 02:41:01;;;;;;;6.37;3.10;;;2.30;99.90;;;;;;5095369;28;20452;-86
2022/04/02 02:43:33;;;;;;;6.30;3.27;;;2.30;99.90;;;;;;5095989;28;20466;-86
2022/04/02 02:46:02;;;;;;;4.67;2.50;;;2.30;99.90;;;;;;5095085;28;20449;-84
2022/04/02 02:48:29;;;;;;;6.27;2.83;;;2.30;99.90;;;;;;5095198;28;20474;-85
2022/04/02 02:50:57;;;;;;;5.37;2.70;;;2.30;99.90;;;;;;5095259;28;20452;-85
2022/04/02 02:53:26;;;;;;;5.07;2.70;;;2.30;99.90;;;;;;5094837;28;20944;-85
2022/04/02 02:55:54;;;;;;;7.30;2.30;;;2.30;99.90;;;;;;5095220;28;20450;-85
2022/04/02 02:58:22;;;;;;;3.77;2.97;;;2.30;99.90;;;;;;5094680;28;20813;-85
2022/04/02 03:00:50;;;;;;;8.20;3.17;;;2.30;99.90;;;;;;5095198;28;20441;-85
2022/04/02 03:03:19;;;;;;;6.10;2.73;;;2.30;99.90;;;;;;5094594;28;20794;-83
2022/04/02 03:05:48;;;;;;;3.63;2.63;;;2.20;99.90;;;;;;5094949;28;20432;-86
2022/04/02 03:08:16;;;;;;;6.27;3.00;;;2.10;99.90;;;;;;5094557;28;20845;-86
2022/04/02 03:10:44;;;;;;;8.60;2.90;;;2.10;99.90;;;;;;5094944;28;20483;-87
2022/04/02 03:13:13;;;;;;;3.83;2.90;;;2.20;99.90;;;;;;5094640;28;20441;-87
2022/04/02 03:15:43;;;;;;;3.90;3.03;;;2.30;99.90;;;;;;5094750;28;20434;-86
2022/04/02 03:18:10;;;;;;;4.30;2.77;;;2.10;99.90;;;;;;5094201;28;20448;-84
2022/04/02 03:20:42;;;;;;;6.47;3.00;;;2.20;99.90;;;;;;5094399;28;20453;-85
2022/04/02 03:23:10;;;;;;;4.07;2.70;;;2.20;99.90;;;;;;5094774;28;20437;-85
2022/04/02 03:25:40;;;;;;;3.33;2.77;;;2.10;99.90;;;;;;5094252;28;20464;-85
2022/04/02 03:28:13;;;;;;;5.23;3.13;;;2.20;99.90;;;;;;5094225;28;20486;-86
2022/04/02 03:30:44;;;;;;;3.07;2.77;;;2.10;99.90;;;;;;5094460;28;20821;-85
2022/04/02 03:33:13;;;;;;;4.23;2.80;;;2.00;99.90;;;;;;5093930;28;20442;-85
2022/04/02 03:35:47;;;;;;;4.60;2.87;;;2.00;99.90;;;;;;5094193;28;20458;-84
2022/04/02 03:38:14;;;;;;;3.10;2.43;;;2.00;99.90;;;;;;5094264;28;20434;-84
2022/04/02 03:40:42;;;;;;;3.93;2.97;;;2.00;99.90;;;;;;5094680;28;20525;-84
2022/04/02 03:43:09;;;;;;;3.93;2.97;;;1.90;99.90;;;;;;5093900;28;20472;-84
2022/04/02 03:45:42;;;;;;;5.13;2.93;;;1.90;99.90;;;;;;5094062;28;20442;-86
2022/04/02 03:48:14;;;;;;;5.33;3.30;;;1.90;99.90;;;;;;5093684;28;20461;-85
2022/04/02 03:50:49;;;;;;;5.23;2.63;;;1.90;99.90;;;;;;5094368;28;20193;-84
2022/04/02 03:53:16;;;;;;;3.40;2.63;;;1.90;99.90;;;;;;5094087;28;20935;-85
2022/04/02 03:55:43;;;;;;;4.03;2.63;;;1.90;99.90;;;;;;5094395;28;20445;-86
2022/04/02 03:58:10;;;;;;;2.80;2.60;;;1.80;99.90;;;;;;5093801;28;20426;-85
2022/04/02 04:00:37;;;;;;;3.97;3.43;;;1.80;99.90;;;;;;5093979;28;20479;-84
2022/04/02 04:03:05;;;;;;;3.27;2.53;;;1.90;99.90;;;;;;5094032;28;20449;-85
2022/04/02 04:05:34;;;;;;;3.03;2.77;;;1.90;99.90;;;;;;5092792;28;20446;-86
2022/04/02 04:08:02;;;;;;;8.47;3.30;;;1.90;99.90;;;;;;5094020;28;20480;-85
2022/04/02 04:10:29;;;;;;;5.87;3.13;;;1.90;99.90;;;;;;5094020;28;20465;-85
2022/04/02 04:12:56;;;;;;;6.40;3.38;;;1.90;99.90;;;;;;5093330;28;20430;-85
2022/04/02 04:15:24;;;;;;;3.60;3.27;;;1.90;99.90;;;;;;5093298;28;20205;-84
2022/04/02 04:17:51;;;;;;;4.37;3.00;;;2.00;99.90;;;;;;5093962;28;20544;-84
2022/04/02 04:20:18;;;;;;;5.67;2.90;;;1.80;99.90;;;;;;5093472;28;20429;-84
2022/04/02 04:22:45;;;;;;;4.37;3.50;;;1.70;99.90;;;;;;5093397;28;20432;-85
2022/04/02 04:25:14;;;;;;;5.70;2.83;;;1.80;99.90;;;;;;5093580;28;20952;-84
2022/04/02 04:27:41;;;;;;;6.63;2.90;;;1.80;99.90;;;;;;5093865;28;20473;-85
2022/04/02 04:30:09;;;;;;;7.90;3.07;;;1.80;99.90;;;;;;5110781;28;20982;-84
2022/04/02 04:32:36;;;;;;;5.50;3.13;;;1.80;99.90;;;;;;5114074;28;20441;-81
2022/04/02 04:35:04;;;;;;;4.33;3.50;;;1.90;99.90;;;;;;5114572;28;20445;-86
2022/04/02 04:37:35;;;;;;;4.88;2.90;;;1.90;99.90;;;;;;5114090;28;20416;-80
2022/04/02 04:40:05;;;;;;;4.53;2.73;;;1.90;99.90;;;;;;5114419;28;20192;-85
2022/04/02 04:42:33;;;;;;;4.47;2.97;;;1.80;99.90;;;;;;5115443;28;20452;-84
2022/04/02 04:45:00;;;;;;;4.93;3.43;;;1.80;99.90;;;;;;5117778;28;20458;-83
2022/04/02 04:47:29;;;;;;;4.00;3.17;;;1.80;99.90;;;;;;5117431;28;20464;-81
2022/04/02 04:49:58;;;;;;;3.83;2.93;;;1.80;99.90;;;;;;5117848;28;20449;-83
2022/04/02 04:52:24;;;;;;;4.10;3.10;;;1.80;99.90;;;;;;5117318;28;20435;-81
2022/04/02 04:54:51;;;;;;;2.87;2.37;;;1.90;99.90;;;;;;5117523;28;20463;-81
2022/04/02 04:57:19;;;;;;;7.43;3.03;;;1.90;99.90;;;;;;5117433;28;20437;-84
2022/04/02 04:59:47;;;;;;;4.47;2.40;;;2.00;99.90;;;;;;5116242;28;20433;-83
2022/04/02 05:02:14;;;;;;;3.47;2.10;;;1.90;99.90;;;;;;5111068;27;20459;-80
2022/04/02 05:04:41;;;;;;;5.20;2.43;;;1.90;99.90;;;;;;5116625;28;20440;-83
2022/04/02 05:07:08;;;;;;;3.33;1.90;;;1.80;99.90;;;;;;5116202;28;20445;-82
2022/04/02 05:09:36;;;;;;;4.57;2.00;;;1.80;99.90;;;;;;5116499;28;20964;-84
2022/04/02 05:12:12;;;;;;;2.90;2.20;;;1.90;99.90;;;;;;5117166;28;20437;-87
2022/04/02 05:14:42;;;;;;;2.40;2.20;;;1.90;99.90;;;;;;5117850;28;20440;-82
2022/04/02 05:17:14;;;;;;;4.77;2.90;;;1.90;99.90;;;;;;5117691;28;20448;-87
2022/04/02 05:19:44;;;;;;;4.17;2.30;;;1.90;99.90;;;;;;5117838;28;20775;-88
2022/04/02 05:22:12;;;;;;;5.93;2.57;;;1.90;99.90;;;;;;5117497;28;20436;-88
2022/04/02 05:24:39;;;;;;;2.10;1.87;;;1.90;99.90;;;;;;5117168;28;20460;-87
2022/04/02 05:27:17;;;;;;;2.60;1.80;;;2.00;99.90;;;;;;5117689;28;20445;-86
2022/04/02 05:29:44;;;;;;;3.00;2.63;;;2.10;99.90;;;;;;5116498;28;20420;-87
2022/04/02 05:32:15;;;;;;;3.00;2.00;;;2.10;99.90;;;;;;5117706;28;20226;-88
2022/04/02 05:35:07;;;;;;;2.70;2.27;;;2.10;99.90;;;;;;5117523;28;20436;-87
2022/04/02 05:37:44;;;;;;;3.23;1.80;;;2.10;99.90;;;;;;5117490;28;20447;-88
2022/04/02 05:40:17;;;;;;;7.13;2.47;;;2.10;99.90;;;;;;5117267;28;20475;-88
2022/04/02 05:42:45;;;;;;;1.97;1.80;;;2.20;99.90;;;;;;5116731;28;20437;-82
2022/04/02 05:45:13;;;;;;;3.07;2.20;;;2.20;99.90;;;;;;5116348;28;20448;-80
2022/04/02 05:47:46;;;;;;;2.30;1.90;;;2.00;99.90;;;;;;5116517;28;20479;-83
2022/04/02 05:50:15;;;;;;;4.50;2.20;;;2.00;99.90;;;;;;5116230;28;20445;-81
2022/04/02 05:52:42;;;;;;;3.00;1.87;;;2.00;99.90;;;;;;5116222;28;20427;-81
2022/04/02 05:55:11;;;;;;;1.87;1.77;;;2.00;99.90;;;;;;5114624;28;20465;-81
2022/04/02 05:57:42;;;;;;;2.50;2.30;;;2.00;99.90;;;;;;5115946;28;20980;-87
2022/04/02 06:00:36;;;;;;;4.87;2.53;;;2.10;99.90;;;;;;5117060;28;20451;-88
2022/04/02 06:03:08;;;;;;;5.30;2.80;;;2.00;99.90;;;;;;5116765;28;20433;-89
2022/04/02 06:05:38;;;;;;;3.37;2.13;;;2.00;99.90;;;;;;5116784;28;20417;-89
2022/04/02 06:08:15;;;;;;;4.07;2.77;;;2.00;99.90;;;;;;5117156;28;20476;-90
2022/04/02 06:10:48;;;;;;;3.40;3.03;;;2.00;99.90;;;;;;5117075;28;20972;-89
2022/04/02 06:13:20;;;;;;;10.80;2.63;;;2.00;99.90;;;;;;5116809;28;20445;-88
2022/04/02 06:15:49;;;;;;;5.30;2.33;;;2.10;99.90;;;;;;5116723;28;20508;-87
2022/04/02 06:18:23;;;;;;;4.53;2.67;;;2.20;99.90;;;;;;5116821;28;20437;-89
2022/04/02 06:20:53;;;;;;;2.90;2.60;;;2.20;99.90;;;;;;5116304;28;20421;-89
2022/04/02 06:23:26;;;;;;;5.53;3.07;;;2.20;99.90;;;;;;5116801;28;20451;-86
2022/04/02 06:25:59;;;;;;;2.60;2.40;;;2.10;99.90;;;;;;5116116;28;20482;-89
2022/04/02 06:28:25;;;;;;;2.90;2.70;;;2.20;99.90;;;;;;5115510;28;20496;-88
2022/04/02 06:30:56;;;;;;;3.17;2.27;;;2.20;99.90;;;;;;5115789;28;20449;-84
2022/04/02 06:33:24;;;;;;;5.40;2.57;;;2.10;99.90;;;;;;5115288;28;20940;-80
2022/04/02 06:35:51;;;;;;;4.80;2.87;;;2.20;99.90;;;;;;5115629;28;20457;-81
2022/04/02 06:38:17;;;;;;;6.70;2.70;;;2.20;99.90;;;;;;5115571;28;20508;-82
2022/04/02 06:40:44;;;;;;;3.60;2.80;;;2.10;99.90;;;;;;5115149;28;20433;-83
2022/04/02 06:43:17;;;;;;;6.87;2.60;;;2.00;99.90;;;;;;5115435;28;20935;-88
2022/04/02 06:45:50;;;;;;;2.63;2.43;;;2.00;99.90;;;;;;5116148;28;20433;-89
2022/04/02 06:48:24;;;;;;;6.37;2.60;;;2.10;99.90;;;;;;5115762;28;20475;-89
2022/04/02 06:50:54;;;;;;;4.30;2.53;;;2.10;99.90;;;;;;5115630;28;20440;-89
2022/04/02 06:53:30;;;;;;;6.53;3.00;;;2.20;99.90;;;;;;5115745;28;20477;-89
2022/04/02 06:56:03;;;;;;;2.30;2.10;;;2.30;99.90;;;;;;5112486;28;20912;-89
2022/04/02 06:58:33;;;;;;;3.67;2.43;;;2.40;99.90;;;;;;5099456;28;20452;-82
2022/04/02 07:01:01;;;;;;;2.53;2.33;;;2.30;99.90;;;;;;5114367;28;20780;-85
2022/04/02 07:03:30;;;;;;;2.50;2.23;;;2.30;99.90;;;;;;5114645;28;20429;-82
2022/04/02 07:05:59;;;;;;;3.53;2.40;;;2.40;99.90;;;;;;5113790;28;20445;-86
2022/04/02 07:08:27;;;;;;;4.18;2.65;;;2.60;99.90;;;;;;5114037;28;20443;-83
2022/04/02 07:10:55;;;;;;;2.27;2.10;;;2.60;99.90;;;;;;5102048;28;20201;-88
2022/04/02 07:13:21;;;;;;;2.40;2.20;;;2.60;99.90;;;;;;5107885;28;20437;-87
2022/04/02 07:15:48;;;;;;;2.87;2.20;;;2.70;99.90;;;;;;5103506;28;20784;-90
2022/04/02 07:18:18;;;;;;;4.23;2.73;;;2.70;99.90;;;;;;5104934;28;20543;-88
2022/04/02 07:20:49;;;;;;;2.70;2.33;;;2.80;99.90;;;;;;5104963;28;20438;-82
2022/04/02 07:23:22;;;;;;;3.33;2.23;;;2.90;99.90;;;;;;5108781;28;20434;-87
2022/04/02 07:25:49;;;;;;;6.10;2.50;;;2.90;99.90;;;;;;5095052;28;20801;-88
2022/04/02 07:28:20;;;;;;;3.60;2.30;;;2.80;99.90;;;;;;5094741;28;20554;-87
2022/04/02 07:30:47;;;;;;;2.87;2.23;;;2.90;99.90;;;;;;5094425;28;20925;-85
2022/04/02 07:33:14;;;;;;;2.70;2.20;;;3.00;99.90;;;;;;5094836;28;20434;-85
2022/04/02 07:35:53;;;;;;;3.60;2.17;;;3.00;99.90;;;;;;5094560;28;20779;-85
2022/04/02 07:38:22;;;;;;;4.10;2.27;;;3.00;99.90;;;;;;5093810;28;20434;-83
2022/04/02 07:40:52;;;;;;;4.47;2.30;;;3.10;99.90;;;;;;5093498;28;20453;-85
2022/04/02 07:43:32;;;;;;;3.50;2.13;;;3.20;99.90;;;;;;5094080;28;20473;-83
2022/04/02 07:46:05;;;;;;;2.80;2.37;;;3.40;99.90;;;;;;5093886;28;20441;-82
2022/04/02 07:48:36;;;;;;;7.43;2.30;;;3.50;99.90;;;;;;5093747;28;20492;-84
2022/04/02 07:51:11;;;;;;;3.97;2.43;;;3.70;99.90;;;;;;5094132;28;20438;-84
2022/04/02 07:53:44;;;;;;;4.20;2.57;;;3.70;99.90;;;;;;5093343;28;20473;-84
2022/04/02 07:56:15;;;;;;;2.30;1.90;;;3.70;99.90;;;;;;5093990;28;20426;-83
2022/04/02 07:58:46;;;;;;;3.80;2.70;;;3.80;99.90;;;;;;5093188;28;20431;-84
2022/04/02 08:01:15;;;;;;;3.53;2.67;;;3.90;99.90;;;;;;5095842;28;20648;-84
2022/04/02 08:03:47;;;;;;;4.40;2.40;;;4.00;99.90;;;;;;5105373;28;20743;-89
2022/04/02 08:06:19;;;;;;;2.80;2.27;;;4.10;99.90;;;;;;5110654;28;20456;-88
2022/04/02 08:08:53;;;;;;;4.80;2.47;;;4.10;99.90;;;;;;5101503;28;20960;-86
2022/04/02 08:11:23;;;;;;;3.03;2.10;;;4.20;99.90;;;;;;5107596;28;20563;-87
2022/04/02 08:13:51;;;;;;;3.13;2.37;;;4.10;99.90;;;;;;5105488;28;20544;-84
2022/04/02 08:16:18;;;;;;;6.40;2.40;;;4.20;99.90;;;;;;5102577;28;20801;-83
2022/04/02 08:18:48;;;;;;;8.73;3.70;;;4.30;99.90;;;;;;5104261;28;20441;-85
2022/04/02 08:21:20;;;;;;;2.33;2.13;;;4.40;99.90;;;;;;5109182;28;20439;-84
2022/04/02 08:23:47;;;;;;;4.57;3.03;;;4.60;99.90;;;;;;5107610;28;20908;-86
2022/04/02 08:26:25;;;;;;;7.17;2.90;;;4.50;99.90;;;;;;5103443;28;20426;-83
2022/04/02 08:29:12;;;;;;;4.33;2.27;;;4.50;99.90;;;;;;5092623;28;20488;-85
2022/04/02 08:31:58;;;;;;;4.63;2.83;;;4.60;99.90;;;;;;5093402;28;20434;-88
2022/04/02 08:34:51;;;;;;;6.10;3.10;;;4.50;99.90;;;;;;5094109;28;20449;-85
2022/04/02 08:37:34;;;;;;;4.03;3.00;;;4.60;99.90;;;;;;5093695;28;20438;-86
2022/04/02 08:40:11;;;;;;;4.67;2.67;;;4.60;99.90;;;;;;5093406;28;20438;-86
2022/04/02 08:43:07;;;;;;;9.27;2.77;;;4.80;99.90;;;;;;5093540;28;20441;-86
2022/04/02 08:45:34;;;;;;;4.33;2.70;;;4.90;99.90;;;;;;5091840;28;20446;-85
2022/04/02 08:48:26;;;;;;;3.42;2.35;;;4.90;99.90;;;;;;5092640;28;20438;-84
2022/04/02 08:51:12;;;;;;;2.80;2.50;;;5.00;99.90;;;;;;5092708;28;20209;-86
2022/04/02 08:54:06;;;;;;;2.70;2.03;;;5.10;99.90;;;;;;5090247;28;20454;-84
2022/04/02 08:56:39;;;;;;;2.80;1.80;;;5.10;99.90;;;;;;5092642;28;20445;-84
2022/04/02 08:59:08;;;;;;;6.27;2.53;;;5.10;99.90;;;;;;5102136;28;20436;-85
2022/04/02 09:01:41;;;;;;;12.63;2.90;;;5.20;99.90;;;;;;5108292;28;20470;-87
2022/04/02 09:04:37;;;;;;;3.47;2.50;;;5.30;99.90;;;;;;5114089;28;20436;-89
2022/04/02 09:07:52;;;;;;;6.03;2.97;;;5.10;99.90;;;;;;5113675;28;20842;-87
2022/04/02 09:10:57;;;;;;;2.20;2.00;;;5.30;99.90;;;;;;5068738;28;20489;-89
2022/04/02 09:14:01;;;;;;;4.25;2.45;;;5.30;99.90;;;;;;5106932;28;20429;-88
2022/04/02 09:16:42;;;;;;;3.70;1.80;;;5.50;99.90;;;;;;5113561;28;20196;-88
2022/04/02 09:19:16;;;;;;;2.90;2.20;;;5.40;99.90;;;;;;5102696;28;20464;-91
2022/04/02 09:22:04;;;;;;;3.70;2.73;;;5.30;99.90;;;;;;5104991;28;20436;-87
2022/04/02 09:25:07;;;;;;;6.07;3.20;;;5.10;99.90;;;;;;5102356;28;20923;-85
2022/04/02 09:28:09;;;;;;;5.33;2.73;;;5.10;99.90;;;;;;5078828;28;20867;-86
2022/04/02 09:31:05;;;;;;;5.00;3.07;;;5.30;99.90;;;;;;5099827;28;20533;-86
2022/04/02 09:34:13;;;;;;;5.63;2.97;;;5.20;99.90;;;;;;5109325;28;20538;-88
2022/04/02 09:36:59;;;;;;;4.40;2.73;;;5.50;99.90;;;;;;5116256;28;20436;-87
2022/04/02 09:39:50;;;;;;;5.83;2.80;;;5.40;99.90;;;;;;5117408;28;20445;-87
2022/04/02 09:42:34;;;;;;;5.07;2.57;;;5.60;99.90;;;;;;5117191;28;20448;-87
2022/04/02 09:45:06;;;;;;;2.10;1.90;;;5.90;99.90;;;;;;5118057;28;20537;-90
2022/04/02 09:47:58;;;;;;;2.33;2.00;;;6.10;99.90;;;;;;5117406;28;20300;-86
2022/04/02 09:50:27;;;;;;;5.50;2.70;;;6.30;99.90;;;;;;5117120;28;20483;-90
2022/04/02 09:52:59;;;;;;;4.30;2.30;;;6.30;99.90;;;;;;5116708;28;20240;-87
2022/04/02 09:55:29;;;;;;;3.93;2.63;;;6.30;99.90;;;;;;5117600;28;20197;-89
2022/04/02 09:58:41;;;;;;;3.07;2.13;;;6.40;99.90;;;;;;5117284;28;20234;-88
2022/04/02 10:01:09;;;;;;;2.73;2.43;;;6.40;99.90;;;;;;5116710;28;20954;-83
2022/04/02 10:03:47;;;;;;;2.40;2.20;;;6.20;99.90;;;;;;5101401;28;20940;-84
2022/04/02 10:06:24;;;;;;;2.23;2.03;;;6.00;99.90;;;;;;5106804;28;20216;-89
2022/04/02 10:09:05;;;;;;;4.70;2.30;;;6.10;99.90;;;;;;5102584;28;20698;-91
2022/04/02 10:11:35;;;;;;;4.10;1.90;;;6.20;99.90;;;;;;5105632;28;20628;-85
2022/04/02 10:14:04;;;;;;;3.60;2.60;;;6.30;99.90;;;;;;5112209;28;20197;-88
2022/04/02 10:16:40;;;;;;;5.57;2.30;;;6.30;99.90;;;;;;5116495;28;20445;-81
2022/04/02 10:19:10;;;;;;;2.67;2.40;;;6.20;99.90;;;;;;5100672;28;20466;-85
2022/04/02 10:21:39;;;;;;;4.03;3.17;;;6.30;99.90;;;;;;5098133;28;20254;-84
2022/04/02 10:24:21;;;;;;;3.63;2.43;;;6.00;99.90;;;;;;5095621;28;20189;-82
2022/04/02 10:26:51;;;;;;;3.33;2.10;;;5.80;99.90;;;;;;5101352;28;20879;-85
2022/04/02 10:29:31;;;;;;;4.27;2.80;;;5.90;99.90;;;;;;5114143;28;20487;-88
2022/04/02 10:32:01;;;;;;;3.37;2.70;;;5.90;99.90;;;;;;5125287;28;20429;-90
2022/04/02 10:34:46;;;;;;;4.13;2.60;;;5.70;99.90;;;;;;5132391;28;20750;-84
2022/04/02 10:37:16;;;;;;;5.20;2.70;;;5.70;99.90;;;;;;5132395;28;20505;-83
2022/04/02 10:39:53;;;;;;;3.47;2.83;;;5.70;99.90;;;;;;5131276;28;20199;-87
2022/04/02 10:42:22;;;;;;;4.50;3.00;;;5.80;99.90;;;;;;5134472;28;20486;-87
2022/04/02 10:44:58;;;;;;;3.43;2.33;;;6.00;99.90;;;;;;5120759;28;20207;-85
2022/04/02 10:47:29;;;;;;;3.87;2.80;;;5.80;99.90;;;;;;5115759;28;20425;-82
2022/04/02 10:50:04;;;;;;;4.27;3.17;;;5.80;99.90;;;;;;5116407;28;20229;-85
2022/04/02 10:52:32;;;;;;;5.03;2.73;;;6.20;99.90;;;;;;5115846;28;20188;-82
2022/04/02 10:54:59;;;;;;;3.42;2.80;;;6.40;99.90;;;;;;5114434;28;20782;-85
2022/04/02 10:57:29;;;;;;;4.57;2.50;;;6.70;99.30;;;;;;5115251;28;20204;-85
2022/04/02 11:00:05;;;;;;;2.90;2.00;;;7.00;98.90;;;;;;5114790;28;20712;-83
2022/04/02 11:02:40;;;;;;;4.53;2.33;;;7.10;98.80;;;;;;5115217;28;20214;-82
2022/04/02 11:05:10;;;;;;;3.50;2.23;;;6.90;98.50;;;;;;5115053;28;20240;-82
2022/04/02 11:07:40;;;;;;;2.80;2.47;;;6.70;98.40;;;;;;5115049;28;20196;-84
2022/04/02 11:10:10;;;;;;;6.93;3.10;;;6.60;99.10;;;;;;5101609;28;20228;-84
2022/04/02 11:12:41;;;;;;;5.70;2.67;;;6.60;99.00;;;;;;5096585;28;20682;-84
2022/04/02 11:15:12;;;;;;;4.70;2.70;;;6.80;99.60;;;;;;5115393;28;20231;-82
2022/04/02 11:17:42;;;;;;;2.40;2.23;;;7.00;99.60;;;;;;5114849;28;20211;-84
2022/04/02 11:20:14;;;;;;;3.33;1.90;;;6.90;98.70;;;;;;5115110;28;20652;-83
2022/04/02 11:23:12;;;;;;;4.90;2.30;;;6.60;98.10;;;;;;5115144;28;20201;-85
2022/04/02 11:25:45;;;;;;;3.07;2.43;;;6.40;98.10;;;;;;5115068;28;20671;-85
2022/04/02 11:28:14;;;;;;;2.43;2.17;;;6.30;98.80;;;;;;5114489;28;20691;-83
2022/04/02 11:30:43;;;;;;;3.90;2.00;;;6.50;98.80;;;;;;5115245;28;20226;-83
2022/04/02 11:33:13;;;;;;;2.60;2.40;;;6.60;98.60;;;;;;5115699;28;20226;-85
2022/04/02 11:35:49;;;;;;;5.57;2.83;;;6.50;98.30;;;;;;5115259;28;20222;-86
2022/04/02 11:38:35;;;;;;;2.83;2.00;;;6.70;99.00;;;;;;5115841;28;20205;-85
2022/04/02 11:41:10;;;;;;;3.13;2.43;;;6.60;97.70;;;;;;5115532;28;20219;-83
2022/04/02 11:43:40;;;;;;;5.60;2.50;;;6.40;97.70;;;;;;5115385;28;20221;-86
2022/04/02 11:46:10;;;;;;;6.22;3.33;;;6.40;97.60;;;;;;5099722;28;20432;-85
2022/04/02 11:48:49;;;;;;;2.93;2.40;;;6.80;97.80;;;;;;5104725;28;20216;-84
2022/04/02 11:51:18;;;;;;;8.63;2.77;;;6.90;97.90;;;;;;5096863;28;20216;-85
2022/04/02 11:53:46;;;;;;;3.83;2.80;;;7.00;97.70;;;;;;5098574;28;20198;-84
2022/04/02 11:56:27;;;;;;;4.47;2.30;;;6.70;96.80;;;;;;5102665;28;20209;-85
2022/04/02 11:58:55;;;;;;;2.43;2.00;;;6.70;97.80;;;;;;5101454;28;20208;-84
2022/04/02 12:01:23;;;;;;;6.83;2.83;;;6.90;97.60;;;;;;5103159;28;20216;-86
2022/04/02 12:04:12;;;;;;;5.40;2.90;;;6.90;97.40;;;;;;5103905;28;20203;-83
2022/04/02 12:06:44;;;;;;;2.20;2.00;;;7.00;98.10;;;;;;5105938;28;20196;-87
2022/04/02 12:09:16;;;;;;;2.57;2.23;;;7.20;98.50;;;;;;5110779;28;20566;-88
2022/04/02 12:11:53;;;;;;;2.47;2.27;;;7.10;99.00;;;;;;5104473;28;20200;-86
2022/04/02 12:14:30;;;;;;;2.87;2.67;;;7.30;99.50;;;;;;5104440;28;20212;-88
2022/04/02 12:17:06;;;;;;;3.00;2.80;;;7.50;99.10;;;;;;5105698;28;20192;-86
2022/04/02 12:19:42;;;;;;;3.57;2.60;;;7.60;99.10;;;;;;5106617;28;20651;-88
2022/04/02 12:22:25;;;;;;;2.50;2.27;;;7.50;99.00;;;;;;5095503;28;20573;-86
2022/04/02 12:24:54;;;;;;;3.07;2.23;;;7.20;99.00;;;;;;5097050;28;20193;-89
2022/04/02 12:27:22;;;;;;;4.60;2.80;;;7.40;99.00;;;;;;5102668;28;20226;-86
2022/04/02 12:29:50;;;;;;;2.43;2.20;;;7.40;99.60;;;;;;5101774;28;20699;-84
2022/04/02 12:32:30;;;;;;;2.30;2.10;;;7.90;99.20;;;;;;5102740;28;20215;-85
2022/04/02 12:34:59;;;;;;;2.43;2.23;;;7.60;98.40;;;;;;5098694;28;20636;-84
2022/04/02 12:37:30;;;;;;;2.90;2.30;;;7.80;98.60;;;;;;5093075;28;20197;-84
2022/04/02 12:39:58;;;;;;;3.13;2.37;;;8.00;98.50;;;;;;5093124;28;20209;-86
2022/04/02 12:42:38;;;;;;;2.60;2.40;;;8.10;98.40;;;;;;5108006;28;20219;-85
2022/04/02 12:45:07;;;;;;;2.50;2.30;;;7.70;97.70;;;;;;5113934;28;20200;-84
2022/04/02 12:47:36;;;;;;;3.67;3.00;;;7.50;98.00;;;;;;5113752;28;20196;-87
2022/04/02 12:50:14;;;;;;;5.00;3.20;;;7.40;98.70;;;;;;5113992;28;20227;-85
2022/04/02 12:52:48;;;;;;;5.17;3.43;;;7.40;98.70;;;;;;5114350;28;20265;-84
2022/04/02 12:55:20;;;;;;;4.07;2.70;;;7.20;99.10;;;;;;5113734;28;20188;-86
2022/04/02 12:58:01;;;;;;;3.50;2.53;;;7.40;98.90;;;;;;5114138;28;20245;-84
2022/04/02 13:00:30;;;;;;;5.22;2.70;;;7.30;98.70;;;;;;5113685;28;20429;-84
2022/04/02 13:02:59;;;;;;;4.43;2.60;;;7.30;99.40;;;;;;5114525;28;20189;-84
2022/04/02 13:05:43;;;;;;;6.77;3.17;;;7.30;98.60;;;;;;5117730;28;20663;-85
2022/04/02 13:08:25;;;;;;;6.80;3.27;;;7.10;98.40;;;;;;5116728;28;20253;-85
2022/04/02 13:10:54;;;;;;;6.27;3.10;;;7.20;98.50;;;;;;5117515;28;20239;-85
2022/04/02 13:13:35;;;;;;;3.50;2.23;;;6.90;97.60;;;;;;5117336;28;20189;-85
2022/04/02 13:16:04;;;;;;;5.63;2.47;;;7.00;96.30;;;;;;5116486;28;20215;-88
2022/04/02 13:21:22;;;;;;;6.07;2.37;;;7.40;95.60;;;;;;5111338;28;20277;-85
2022/04/02 13:24:26;;;;;;;2.97;2.50;;;7.80;94.40;;;;;;5096968;28;20229;-85
2022/04/02 13:27:26;;;;;;;2.50;2.30;;;7.90;94.20;;;;;;5095670;28;20441;-83
2022/04/02 13:30:08;;;;;;;5.23;2.40;;;8.10;94.20;;;;;;5096756;28;20229;-85
2022/04/02 13:33:09;;;;;;;4.50;2.90;;;8.00;94.70;;;;;;5096973;28;20242;-86
2022/04/02 13:35:39;;;;;;;3.67;2.70;;;7.50;95.40;;;;;;5079724;28;20220;-83